Valdez Pioneer Field Valdez US
ICAO: PAVD
IATA:
Category: Medium
Scheduled Services:

Elevation: 121 ft
TransAlt. 18000 ft.

Airport Communications:
AWOS 3:118.8
ANCHORAGE CNTR:119.3
CTAF:122.9
JUNEAU RDO:122.2

PAVD Zoom In..

If you have problems with the map follow the link
https://www.worldairports.se/pages/airport.php?
ICAO=PAVD

Runways:

(A) RW 06 length 6500 ft width 150 ft
---- / hdg 62

(B) RW 24 length 6500 ft width 150 ft
---- / hdg 242

Location; PAVD
Day. 26 / Time. 02.56 Zulu
* Altimeter: 29.44
* Temperature: -11° c. -12.2°f.
* Wind from: 000° Speed 00 kn.
Dewpoint: -19° c.
Visibility: 10 Statute Miles.
Clouds: Overcast 6500 ft.

PAVD 260256Z 00000KT 10SM OVC065 M11/M19 A2944 RMK AO2 SLP970 T11061189 56001


Wind - Calm.

 
 
jpsmedia worldairports.se 2020   terms of use